Time;durP1;ratioP1;P1;durP2;ratioP2;P2;SDS_P1;SDS_P2;PMS_P1;PMS_P2;Temp;Humidity;BMP_temperature;BMP_pressure;BME280_temperature;BME280_humidity;BME280_pressure;Samples;Min_cycle;Max_cycle;Signal;HPM_P1;HPM_P2
2023/06/03 00:01:18;;;;;;;;;;;19.30;74.50;;;;;;5029884;28;19931;-77
2023/06/03 00:03:46;;;;;;;;;;;19.30;74.70;;;;;;5029660;28;19925;-77
2023/06/03 00:06:13;;;;;;;;;;;19.20;74.50;;;;;;5027240;28;19931;-76
2023/06/03 00:08:40;;;;;;;;;;;19.20;74.70;;;;;;5027345;28;19948;-76
2023/06/03 00:11:07;;;;;;;;;;;19.20;74.80;;;;;;5029896;28;20288;-77
2023/06/03 00:13:34;;;;;;;;;;;19.10;74.80;;;;;;5028652;28;19925;-77
2023/06/03 00:16:01;;;;;;;;;;;19.10;74.90;;;;;;5006017;28;20337;-76
2023/06/03 00:18:29;;;;;;;;;;;19.10;74.90;;;;;;5028303;28;20444;-77
2023/06/03 00:20:56;;;;;;;;;;;19.10;75.00;;;;;;5025511;28;20071;-77
2023/06/03 00:23:23;;;;;;;;;;;19.10;75.00;;;;;;5032750;28;19931;-77
2023/06/03 00:25:50;;;;;;;;;;;19.00;75.00;;;;;;5029379;28;19928;-77
2023/06/03 00:28:16;;;;;;;;;;;19.00;75.10;;;;;;5025715;28;20318;-77
2023/06/03 00:30:43;;;;;;;;;;;19.00;75.10;;;;;;5025805;28;19929;-77
2023/06/03 00:33:10;;;;;;;;;;;18.90;75.10;;;;;;5029362;28;19969;-77
2023/06/03 00:35:38;;;;;;;;;;;18.90;75.20;;;;;;5028635;28;19925;-77
2023/06/03 00:38:09;;;;;;;;;;;18.90;75.30;;;;;;5026003;28;20032;-78
2023/06/03 00:40:37;;;;;;;;;;;18.80;75.20;;;;;;5028740;28;19925;-77
2023/06/03 00:43:04;;;;;;;;;;;18.80;75.30;;;;;;5028746;28;19975;-77
2023/06/03 00:45:31;;;;;;;;;;;18.80;75.40;;;;;;5025907;28;19929;-77
2023/06/03 00:47:58;;;;;;;;;;;18.70;75.30;;;;;;5028681;28;19933;-77
2023/06/03 00:50:25;;;;;;;;;;;18.70;75.30;;;;;;5030714;28;19995;-77
2023/06/03 00:52:54;;;;;;;;;;;18.70;75.40;;;;;;5011687;28;19925;-77
2023/06/03 00:55:21;;;;;;;;;;;18.70;75.50;;;;;;5024618;28;19929;-77
2023/06/03 00:57:48;;;;;;;;;;;18.60;75.40;;;;;;5030685;28;20632;-77
2023/06/03 01:00:15;;;;;;;;;;;18.60;75.40;;;;;;5011421;28;19929;-77
2023/06/03 01:02:44;;;;;;;;;;;18.60;75.50;;;;;;5026562;28;19936;-77
2023/06/03 01:05:11;;;;;;;;;;;18.50;75.30;;;;;;5008418;28;19925;-77
2023/06/03 01:07:41;;;;;;;;;;;18.50;75.30;;;;;;5031042;28;19925;-77
2023/06/03 01:10:15;;;;;;;;;;;18.50;75.30;;;;;;5013712;28;19926;-77
2023/06/03 01:12:46;;;;;;;;;;;18.40;75.20;;;;;;5025652;28;19936;-77
2023/06/03 01:15:15;;;;;;;;;;;18.40;75.30;;;;;;5027607;28;19967;-77
2023/06/03 01:17:47;;;;;;;;;;;18.40;75.30;;;;;;5010821;28;20375;-77
2023/06/03 01:20:16;;;;;;;;;;;18.30;75.10;;;;;;5027931;28;20375;-77
2023/06/03 01:22:44;;;;;;;;;;;18.30;75.20;;;;;;5018583;28;19979;-77
2023/06/03 01:25:15;;;;;;;;;;;18.30;75.20;;;;;;5027203;28;19926;-77
2023/06/03 01:27:42;;;;;;;;;;;18.30;75.30;;;;;;5027644;28;19975;-77
2023/06/03 01:30:10;;;;;;;;;;;18.20;75.30;;;;;;5023138;28;20063;-77
2023/06/03 01:32:38;;;;;;;;;;;18.20;75.40;;;;;;5026895;28;19940;-77
2023/06/03 01:35:06;;;;;;;;;;;18.20;75.60;;;;;;5028674;28;19929;-77
2023/06/03 01:37:34;;;;;;;;;;;18.10;75.50;;;;;;5029254;28;19929;-77
2023/06/03 01:40:02;;;;;;;;;;;18.10;75.60;;;;;;5027152;28;19925;-77
2023/06/03 01:42:34;;;;;;;;;;;18.10;75.60;;;;;;5027638;28;19929;-77
2023/06/03 01:45:02;;;;;;;;;;;18.10;75.70;;;;;;5033541;28;19925;-77
2023/06/03 01:47:30;;;;;;;;;;;18.10;75.80;;;;;;5034901;28;19949;-77
2023/06/03 01:49:59;;;;;;;;;;;18.10;75.80;;;;;;5016138;28;19925;-77
2023/06/03 01:52:28;;;;;;;;;;;18.00;75.70;;;;;;5033521;28;20395;-76
2023/06/03 01:54:55;;;;;;;;;;;18.00;75.80;;;;;;5012136;28;19932;-77
2023/06/03 01:57:22;;;;;;;;;;;17.90;75.80;;;;;;5016942;28;19936;-77
2023/06/03 01:59:52;;;;;;;;;;;17.90;75.80;;;;;;5017217;28;19929;-76
2023/06/03 02:02:19;;;;;;;;;;;17.90;75.80;;;;;;5017615;28;19932;-77
2023/06/03 02:04:45;;;;;;;;;;;17.90;75.90;;;;;;5032861;28;19929;-77
2023/06/03 02:07:13;;;;;;;;;;;17.90;75.90;;;;;;5031750;28;20426;-77
2023/06/03 02:09:41;;;;;;;;;;;17.80;75.80;;;;;;5015916;28;19925;-77
2023/06/03 02:12:08;;;;;;;;;;;17.80;75.80;;;;;;5032224;28;19994;-77
2023/06/03 02:14:38;;;;;;;;;;;17.80;75.80;;;;;;5026658;28;20398;-77
2023/06/03 02:17:07;;;;;;;;;;;17.70;75.70;;;;;;5032200;28;19971;-78
2023/06/03 02:19:34;;;;;;;;;;;17.70;75.90;;;;;;5031273;28;19925;-77
2023/06/03 02:22:01;;;;;;;;;;;17.70;75.90;;;;;;5026208;28;19952;-77
2023/06/03 02:24:34;;;;;;;;;;;17.70;75.80;;;;;;5028829;28;20331;-77
2023/06/03 02:27:04;;;;;;;;;;;17.60;75.80;;;;;;5031263;28;19925;-77
2023/06/03 02:29:32;;;;;;;;;;;17.60;75.90;;;;;;5030912;28;19933;-77
2023/06/03 02:31:59;;;;;;;;;;;17.60;75.90;;;;;;5027372;28;19929;-77
2023/06/03 02:34:27;;;;;;;;;;;17.60;75.80;;;;;;5031058;28;20354;-76
2023/06/03 02:36:54;;;;;;;;;;;17.60;75.90;;;;;;5030554;28;19925;-78
2023/06/03 02:39:22;;;;;;;;;;;17.50;75.90;;;;;;5030921;28;20119;-77
2023/06/03 02:41:49;;;;;;;;;;;17.50;76.00;;;;;;5027859;28;19932;-76
2023/06/03 02:44:17;;;;;;;;;;;17.50;76.10;;;;;;5030798;28;19925;-77
2023/06/03 02:46:44;;;;;;;;;;;17.50;76.10;;;;;;5037784;28;19925;-77
2023/06/03 02:49:11;;;;;;;;;;;17.40;76.00;;;;;;5030035;28;20016;-77
2023/06/03 02:51:40;;;;;;;;;;;17.40;76.00;;;;;;5027750;28;19968;-77
2023/06/03 02:54:07;;;;;;;;;;;17.40;76.00;;;;;;5033472;28;19957;-76
2023/06/03 02:56:40;;;;;;;;;;;17.40;76.00;;;;;;5031152;28;19925;-77
2023/06/03 02:59:07;;;;;;;;;;;17.40;76.10;;;;;;5022938;28;20649;-77
2023/06/03 03:01:33;;;;;;;;;;;17.30;76.10;;;;;;5032332;28;20310;-77
2023/06/03 03:04:01;;;;;;;;;;;17.30;76.00;;;;;;5030983;28;19926;-77
2023/06/03 03:06:29;;;;;;;;;;;17.30;76.20;;;;;;5030304;28;19976;-77
2023/06/03 03:08:57;;;;;;;;;;;17.20;76.10;;;;;;5027765;28;20384;-77
2023/06/03 03:11:29;;;;;;;;;;;17.20;76.10;;;;;;5030989;28;19960;-77
2023/06/03 03:13:58;;;;;;;;;;;17.20;76.10;;;;;;5041362;28;19983;-77
2023/06/03 03:16:26;;;;;;;;;;;17.20;76.20;;;;;;5025235;28;19925;-77
2023/06/03 03:18:54;;;;;;;;;;;17.20;76.20;;;;;;5035804;28;20422;-77
2023/06/03 03:21:27;;;;;;;;;;;17.10;76.20;;;;;;5027935;28;20411;-77
2023/06/03 03:23:55;;;;;;;;;;;17.10;76.20;;;;;;5028505;28;19925;-77
2023/06/03 03:26:26;;;;;;;;;;;17.10;76.30;;;;;;5025972;28;19931;-76
2023/06/03 03:28:53;;;;;;;;;;;17.10;76.30;;;;;;5028413;28;20014;-77
2023/06/03 03:31:21;;;;;;;;;;;17.00;76.20;;;;;;5034828;28;19928;-77
2023/06/03 03:33:49;;;;;;;;;;;17.00;76.30;;;;;;5029342;28;19933;-77
2023/06/03 03:36:20;;;;;;;;;;;17.00;76.30;;;;;;5029601;28;19932;-77
2023/06/03 03:38:52;;;;;;;;;;;17.00;76.30;;;;;;5026035;28;19931;-77
2023/06/03 03:41:19;;;;;;;;;;;17.00;76.50;;;;;;5014865;28;19925;-77
2023/06/03 03:43:50;;;;;;;;;;;16.90;76.40;;;;;;5010043;28;19979;-77
2023/06/03 03:46:17;;;;;;;;;;;16.90;76.40;;;;;;5036800;28;19925;-76
2023/06/03 03:48:44;;;;;;;;;;;16.90;76.50;;;;;;5030698;28;19929;-77
2023/06/03 03:51:12;;;;;;;;;;;16.90;76.60;;;;;;5014617;28;19929;-76
2023/06/03 03:53:43;;;;;;;;;;;16.80;76.50;;;;;;5080769;22;20894;-71
2023/06/03 03:56:19;;;;;;;;;;;16.80;76.50;;;;;;5006028;28;19926;-71
2023/06/03 03:58:52;;;;;;;;;;;16.80;76.50;;;;;;5008134;28;20318;-71
2023/06/03 04:01:23;;;;;;;;;;;16.80;76.50;;;;;;4993150;28;20029;-70
2023/06/03 04:03:54;;;;;;;;;;;16.70;76.50;;;;;;4989149;28;19931;-70
2023/06/03 04:06:28;;;;;;;;;;;16.70;76.60;;;;;;5010439;28;19926;-70
2023/06/03 04:08:55;;;;;;;;;;;16.70;76.70;;;;;;5005281;28;19929;-70
2023/06/03 04:11:25;;;;;;;;;;;16.70;76.80;;;;;;4990860;28;19993;-70
2023/06/03 04:13:54;;;;;;;;;;;16.70;76.80;;;;;;5008171;28;20384;-71
2023/06/03 04:16:44;;;;;;;;;;;16.60;76.80;;;;;;5011161;28;19965;-71
2023/06/03 04:19:14;;;;;;;;;;;16.60;76.80;;;;;;5009082;28;20020;-71
2023/06/03 04:21:41;;;;;;;;;;;16.60;76.90;;;;;;5001917;28;19934;-71
2023/06/03 04:24:08;;;;;;;;;;;16.60;77.00;;;;;;5005088;28;19930;-70
2023/06/03 04:26:35;;;;;;;;;;;16.50;76.90;;;;;;5007162;28;19925;-70
2023/06/03 04:29:04;;;;;;;;;;;16.50;77.10;;;;;;5005193;28;19955;-70
2023/06/03 04:31:31;;;;;;;;;;;16.50;77.10;;;;;;5007631;28;19995;-70
2023/06/03 04:33:58;;;;;;;;;;;16.50;77.10;;;;;;4991337;28;20400;-70
2023/06/03 04:36:25;;;;;;;;;;;16.50;77.10;;;;;;5004975;28;19926;-70
2023/06/03 04:38:53;;;;;;;;;;;16.50;77.30;;;;;;5004540;28;20446;-71
2023/06/03 04:41:22;;;;;;;;;;;16.50;77.30;;;;;;5007627;28;19937;-71
2023/06/03 04:43:52;;;;;;;;;;;16.40;77.40;;;;;;5009075;28;19940;-70
2023/06/03 04:46:25;;;;;;;;;;;16.40;77.40;;;;;;4987162;28;19926;-70
2023/06/03 04:48:53;;;;;;;;;;;16.40;77.60;;;;;;4991500;28;19936;-70
2023/06/03 04:51:20;;;;;;;;;;;16.40;77.80;;;;;;5008995;28;19948;-70
2023/06/03 04:53:47;;;;;;;;;;;16.40;77.80;;;;;;5006644;28;19933;-70
2023/06/03 04:56:13;;;;;;;;;;;16.40;78.00;;;;;;5004677;28;20406;-70
2023/06/03 04:58:41;;;;;;;;;;;16.40;77.90;;;;;;5003012;28;19933;-70
2023/06/03 05:01:11;;;;;;;;;;;16.30;77.70;;;;;;5009158;28;19926;-70
2023/06/03 05:03:40;;;;;;;;;;;16.40;77.90;;;;;;5004024;28;20363;-70
2023/06/03 05:06:10;;;;;;;;;;;16.30;77.80;;;;;;4990496;28;19988;-71
2023/06/03 05:08:38;;;;;;;;;;;16.30;77.80;;;;;;5007924;28;19964;-70
2023/06/03 05:11:05;;;;;;;;;;;16.30;78.50;;;;;;4990317;28;19929;-71
2023/06/03 05:13:34;;;;;;;;;;;16.30;77.80;;;;;;5009706;28;20004;-71
2023/06/03 05:16:01;;;;;;;;;;;16.30;77.80;;;;;;5008352;28;19925;-70
2023/06/03 05:18:28;;;;;;;;;;;16.30;77.50;;;;;;5003524;28;19957;-70
2023/06/03 05:20:56;;;;;;;;;;;16.30;77.80;;;;;;5002753;28;19930;-70
2023/06/03 05:23:23;;;;;;;;;;;16.30;77.70;;;;;;5008832;28;19989;-70
2023/06/03 05:25:50;;;;;;;;;;;16.30;77.50;;;;;;5015311;28;19925;-70
2023/06/03 05:28:17;;;;;;;;;;;16.30;77.50;;;;;;5006377;28;19926;-70
2023/06/03 05:30:45;;;;;;;;;;;16.30;77.60;;;;;;5008122;28;19925;-70
2023/06/03 05:33:23;;;;;;;;;;;16.30;77.60;;;;;;5011235;28;20045;-70
2023/06/03 05:35:50;;;;;;;;;;;16.30;77.80;;;;;;5008099;28;19941;-70
2023/06/03 05:38:21;;;;;;;;;;;16.30;77.90;;;;;;4999564;28;19930;-70
2023/06/03 05:40:48;;;;;;;;;;;16.30;78.00;;;;;;5011884;28;19933;-70
2023/06/03 05:43:16;;;;;;;;;;;16.20;77.80;;;;;;5007897;28;19932;-71
2023/06/03 05:45:43;;;;;;;;;;;16.30;78.70;;;;;;5008303;28;20384;-70
2023/06/03 05:48:10;;;;;;;;;;;16.20;78.20;;;;;;5013051;28;19976;-71
2023/06/03 05:50:39;;;;;;;;;;;16.30;78.10;;;;;;5010933;28;19933;-70
2023/06/03 05:53:06;;;;;;;;;;;16.30;78.10;;;;;;5008772;28;19976;-70
2023/06/03 05:55:34;;;;;;;;;;;16.30;78.30;;;;;;5011086;28;19999;-70
2023/06/03 05:58:01;;;;;;;;;;;16.30;78.50;;;;;;5011573;28;19929;-71
2023/06/03 06:00:28;;;;;;;;;;;16.30;78.10;;;;;;5010338;28;19925;-71
2023/06/03 06:02:56;;;;;;;;;;;16.30;78.50;;;;;;5009354;28;20028;-71
2023/06/03 06:05:23;;;;;;;;;;;16.30;78.10;;;;;;5015630;28;19960;-70
2023/06/03 06:07:51;;;;;;;;;;;16.30;78.30;;;;;;5016404;28;19948;-70
2023/06/03 06:10:18;;;;;;;;;;;16.30;78.30;;;;;;5011344;28;20011;-71
2023/06/03 06:12:46;;;;;;;;;;;16.20;78.00;;;;;;5011136;28;20020;-71
2023/06/03 06:15:13;;;;;;;;;;;16.30;78.40;;;;;;4996440;28;19961;-70
2023/06/03 06:17:40;;;;;;;;;;;16.30;78.40;;;;;;4998033;28;20029;-70
2023/06/03 06:20:08;;;;;;;;;;;16.30;78.50;;;;;;5006622;28;19941;-70
2023/06/03 06:22:36;;;;;;;;;;;16.30;78.90;;;;;;5008771;28;19995;-71
2023/06/03 06:25:03;;;;;;;;;;;16.30;78.70;;;;;;4993975;28;20013;-70
2023/06/03 06:27:31;;;;;;;;;;;16.30;79.10;;;;;;5009552;28;19980;-70
2023/06/03 06:29:59;;;;;;;;;;;16.30;78.60;;;;;;5007840;28;19972;-71
2023/06/03 06:32:27;;;;;;;;;;;16.30;79.20;;;;;;5010133;28;19925;-71
2023/06/03 06:34:55;;;;;;;;;;;16.40;79.80;;;;;;5010013;28;19930;-70
2023/06/03 06:37:22;;;;;;;;;;;16.40;80.10;;;;;;5006601;28;19937;-70
2023/06/03 06:39:49;;;;;;;;;;;16.40;80.30;;;;;;5010973;28;20499;-70
2023/06/03 06:42:34;;;;;;;;;;;16.40;80.30;;;;;;5007712;28;19929;-69
2023/06/03 06:45:16;;;;;;;;;;;16.40;79.80;;;;;;5006341;28;19932;-70
2023/06/03 06:47:46;;;;;;;;;;;16.40;80.40;;;;;;4993534;28;20292;-70
2023/06/03 06:50:25;;;;;;;;;;;16.50;80.90;;;;;;5010404;28;19926;-70
2023/06/03 06:52:52;;;;;;;;;;;16.40;80.70;;;;;;5009170;28;19932;-70
2023/06/03 06:55:25;;;;;;;;;;;16.50;81.10;;;;;;5006154;28;19926;-70
2023/06/03 06:57:54;;;;;;;;;;;16.50;81.30;;;;;;5013383;28;19956;-70
2023/06/03 07:00:23;;;;;;;;;;;16.50;81.40;;;;;;5010060;28;19960;-70
2023/06/03 07:02:49;;;;;;;;;;;16.50;81.50;;;;;;5007035;28;19955;-70
2023/06/03 07:05:16;;;;;;;;;;;16.50;81.60;;;;;;5015177;28;19933;-70
2023/06/03 07:07:43;;;;;;;;;;;16.50;81.50;;;;;;5008616;28;19977;-70
2023/06/03 07:10:10;;;;;;;;;;;16.50;81.60;;;;;;5009634;28;20020;-70
2023/06/03 07:12:37;;;;;;;;;;;16.50;81.80;;;;;;5009316;28;19925;-71
2023/06/03 07:15:05;;;;;;;;;;;16.50;81.80;;;;;;5009801;28;20040;-70
2023/06/03 07:17:33;;;;;;;;;;;16.50;81.90;;;;;;5008996;28;20320;-70
2023/06/03 07:20:05;;;;;;;;;;;16.60;82.10;;;;;;5006794;28;19925;-71
2023/06/03 07:22:33;;;;;;;;;;;16.60;82.10;;;;;;5006365;28;19940;-70
2023/06/03 07:24:59;;;;;;;;;;;16.60;82.10;;;;;;5010160;28;20354;-70
2023/06/03 07:27:32;;;;;;;;;;;16.60;82.20;;;;;;5009248;28;19936;-70
2023/06/03 07:30:01;;;;;;;;;;;16.60;82.20;;;;;;5006841;28;19925;-70
2023/06/03 07:32:30;;;;;;;;;;;16.60;82.30;;;;;;5008636;28;19933;-70
2023/06/03 07:34:58;;;;;;;;;;;16.60;82.20;;;;;;5008690;28;19932;-70
2023/06/03 07:37:26;;;;;;;;;;;16.60;82.50;;;;;;5005176;28;20674;-70
2023/06/03 07:39:53;;;;;;;;;;;16.60;82.50;;;;;;5008374;28;19980;-70
2023/06/03 07:42:20;;;;;;;;;;;16.70;82.70;;;;;;5016774;28;20011;-70
2023/06/03 07:45:08;;;;;;;;;;;16.70;82.80;;;;;;5008490;28;19932;-70
2023/06/03 07:47:34;;;;;;;;;;;16.70;83.00;;;;;;5006588;28;19925;-71
2023/06/03 07:50:04;;;;;;;;;;;16.70;83.10;;;;;;5010191;28;20363;-71
2023/06/03 07:52:36;;;;;;;;;;;16.70;83.00;;;;;;5008569;28;20312;-71
2023/06/03 07:55:07;;;;;;;;;;;16.70;83.00;;;;;;5006994;28;19925;-70
2023/06/03 07:57:38;;;;;;;;;;;16.70;83.10;;;;;;5008968;28;20354;-71
2023/06/03 08:00:13;;;;;;;;;;;16.70;82.80;;;;;;5009473;28;19991;-70
2023/06/03 08:02:47;;;;;;;;;;;16.70;83.00;;;;;;5009663;28;19925;-70
2023/06/03 08:05:16;;;;;;;;;;;16.70;83.20;;;;;;5006170;28;19964;-71
2023/06/03 08:07:43;;;;;;;;;;;16.70;83.20;;;;;;5004050;28;19926;-70
2023/06/03 08:10:15;;;;;;;;;;;16.70;83.30;;;;;;5007677;28;19926;-70
2023/06/03 08:12:43;;;;;;;;;;;16.70;83.50;;;;;;5004304;28;19933;-70
2023/06/03 08:15:17;;;;;;;;;;;16.70;83.60;;;;;;5009682;28;20303;-71
2023/06/03 08:17:44;;;;;;;;;;;16.70;83.50;;;;;;5009498;28;19933;-70
2023/06/03 08:20:12;;;;;;;;;;;16.70;83.60;;;;;;5009319;28;20383;-70
2023/06/03 08:22:42;;;;;;;;;;;16.70;83.90;;;;;;5003188;28;20574;-70
2023/06/03 08:25:09;;;;;;;;;;;16.80;84.10;;;;;;5008109;28;19995;-70
2023/06/03 08:27:36;;;;;;;;;;;16.80;84.30;;;;;;5003283;28;19991;-70
2023/06/03 08:30:04;;;;;;;;;;;16.80;84.40;;;;;;5000451;28;20404;-70
2023/06/03 08:32:33;;;;;;;;;;;16.80;84.70;;;;;;5008407;28;19925;-70
2023/06/03 08:35:00;;;;;;;;;;;16.80;84.70;;;;;;4990689;28;20355;-70
2023/06/03 08:37:36;;;;;;;;;;;16.80;84.60;;;;;;5009080;28;19926;-70
2023/06/03 08:40:07;;;;;;;;;;;16.80;84.80;;;;;;4988038;28;19932;-70
2023/06/03 08:42:42;;;;;;;;;;;16.90;85.00;;;;;;5009750;28;19929;-70
2023/06/03 08:45:09;;;;;;;;;;;16.80;85.00;;;;;;5007803;28;19973;-70
2023/06/03 08:47:42;;;;;;;;;;;16.90;85.00;;;;;;5007795;28;19929;-70
2023/06/03 08:50:11;;;;;;;;;;;16.90;85.30;;;;;;5006150;28;19968;-71
2023/06/03 08:52:39;;;;;;;;;;;16.90;85.30;;;;;;4991468;28;19930;-70
2023/06/03 08:55:07;;;;;;;;;;;16.90;85.20;;;;;;5007548;28;19933;-71
2023/06/03 08:57:35;;;;;;;;;;;16.90;85.40;;;;;;5006431;28;20040;-70
2023/06/03 09:00:04;;;;;;;;;;;16.90;85.50;;;;;;5005924;28;19926;-70
2023/06/03 09:02:32;;;;;;;;;;;16.90;85.70;;;;;;4986827;28;19925;-70
2023/06/03 09:05:01;;;;;;;;;;;16.90;85.90;;;;;;5008579;28;19991;-70
2023/06/03 09:07:29;;;;;;;;;;;16.90;86.00;;;;;;5005290;28;19926;-70
2023/06/03 09:09:56;;;;;;;;;;;16.90;86.10;;;;;;5007460;28;19925;-71
2023/06/03 09:12:26;;;;;;;;;;;17.00;86.30;;;;;;5008614;28;19929;-71
2023/06/03 09:14:57;;;;;;;;;;;17.00;86.30;;;;;;5003979;28;19976;-70
2023/06/03 09:17:25;;;;;;;;;;;17.00;86.40;;;;;;5004422;28;19929;-71
2023/06/03 09:19:53;;;;;;;;;;;17.00;86.70;;;;;;5007671;28;20411;-70
2023/06/03 09:22:20;;;;;;;;;;;17.00;86.40;;;;;;5005724;28;19929;-70
2023/06/03 09:24:47;;;;;;;;;;;17.00;86.50;;;;;;5004532;28;19972;-70
2023/06/03 09:27:14;;;;;;;;;;;17.00;86.50;;;;;;5007217;28;19957;-70
2023/06/03 09:29:43;;;;;;;;;;;17.00;86.60;;;;;;5007508;28;20005;-71
2023/06/03 09:32:10;;;;;;;;;;;17.00;86.70;;;;;;5008322;28;19984;-70
2023/06/03 09:34:37;;;;;;;;;;;17.10;87.20;;;;;;5004987;28;19989;-70
2023/06/03 09:37:07;;;;;;;;;;;17.10;87.10;;;;;;5007993;28;20304;-71
2023/06/03 09:39:34;;;;;;;;;;;17.10;86.80;;;;;;5007022;28;19957;-70
2023/06/03 09:42:01;;;;;;;;;;;17.10;86.90;;;;;;5008544;28;20061;-71
2023/06/03 09:44:37;;;;;;;;;;;17.10;86.90;;;;;;5005384;28;20391;-71
2023/06/03 09:47:06;;;;;;;;;;;17.10;87.10;;;;;;5008742;28;20392;-71
2023/06/03 09:49:34;;;;;;;;;;;17.10;87.20;;;;;;5001188;28;20357;-71
2023/06/03 09:52:09;;;;;;;;;;;17.10;87.00;;;;;;5001690;28;20028;-70
2023/06/03 09:54:41;;;;;;;;;;;17.10;87.30;;;;;;5006770;28;19929;-70
2023/06/03 09:57:17;;;;;;;;;;;17.20;87.30;;;;;;5007268;28;19980;-71
2023/06/03 09:59:46;;;;;;;;;;;17.20;87.20;;;;;;5004977;28;20306;-70
2023/06/03 10:04:57;;;;;;;;;;;17.20;87.70;;;;;;4982994;28;20003;-77
2023/06/03 10:07:24;;;;;;;;;;;17.20;87.60;;;;;;5026936;28;19929;-77
2023/06/03 10:09:50;;;;;;;;;;;17.20;87.70;;;;;;5031877;28;19933;-76
2023/06/03 10:12:28;;;;;;;;;;;17.30;87.90;;;;;;5030873;28;19933;-77
2023/06/03 10:14:56;;;;;;;;;;;17.30;88.00;;;;;;5029881;28;19925;-77
2023/06/03 10:17:23;;;;;;;;;;;17.30;88.10;;;;;;5028206;28;20021;-77
2023/06/03 10:19:50;;;;;;;;;;;17.30;88.40;;;;;;5148981;22;19976;-90
2023/06/03 10:22:19;;;;;;;;;;;17.30;88.20;;;;;;5034732;28;20843;-90
2023/06/03 10:24:47;;;;;;;;;;;17.30;88.10;;;;;;5050642;28;19924;-91
2023/06/03 10:27:14;;;;;;;;;;;17.30;88.30;;;;;;5034997;28;19925;-94
2023/06/03 10:29:41;;;;;;;;;;;17.30;88.70;;;;;;5036780;28;19995;-89
2023/06/03 10:32:09;;;;;;;;;;;17.40;88.70;;;;;;5031775;28;19925;-91
2023/06/03 10:34:37;;;;;;;;;;;17.40;88.70;;;;;;5090339;22;19933;-78
2023/06/03 10:37:04;;;;;;;;;;;17.40;88.60;;;;;;4996942;22;20584;-71
2023/06/03 10:39:33;;;;;;;;;;;17.50;89.00;;;;;;4988795;28;20026;-71
2023/06/03 10:42:00;;;;;;;;;;;17.50;88.90;;;;;;5006161;28;19935;-71
2023/06/03 10:44:27;;;;;;;;;;;17.50;89.00;;;;;;5028434;28;19925;-71
2023/06/03 10:46:56;;;;;;;;;;;17.50;88.90;;;;;;5027816;28;20002;-71
2023/06/03 10:49:24;;;;;;;;;;;17.50;89.40;;;;;;5030831;28;20403;-71
2023/06/03 10:52:06;;;;;;;;;;;17.50;89.00;;;;;;5031177;28;19972;-71
2023/06/03 10:54:37;;;;;;;;;;;17.60;88.90;;;;;;5007359;28;19964;-71
2023/06/03 10:57:06;;;;;;;;;;;17.60;88.80;;;;;;5025458;28;20026;-71
2023/06/03 10:59:40;;;;;;;;;;;17.60;88.70;;;;;;5029568;28;20028;-71
2023/06/03 11:02:07;;;;;;;;;;;17.60;88.60;;;;;;5026956;28;19929;-70
2023/06/03 11:04:36;;;;;;;;;;;17.70;88.40;;;;;;5027439;28;20308;-71
2023/06/03 11:07:07;;;;;;;;;;;17.60;88.50;;;;;;5023689;22;19930;-78
2023/06/03 11:09:36;;;;;;;;;;;17.70;88.80;;;;;;4997866;28;20114;-78
2023/06/03 11:12:12;;;;;;;;;;;17.70;89.00;;;;;;5001659;28;19933;-78
2023/06/03 11:14:52;;;;;;;;;;;17.70;88.60;;;;;;5028863;28;19960;-78
2023/06/03 11:17:19;;;;;;;;;;;17.70;88.80;;;;;;5026313;28;19925;-78
2023/06/03 11:19:50;;;;;;;;;;;17.70;88.90;;;;;;5029744;28;19925;-78
2023/06/03 11:22:37;;;;;;;;;;;17.80;89.00;;;;;;5030740;28;20025;-78
2023/06/03 11:25:06;;;;;;;;;;;17.80;88.80;;;;;;5025440;28;19975;-78
2023/06/03 11:27:32;;;;;;;;;;;17.80;88.90;;;;;;5030454;28;20350;-78
2023/06/03 11:30:00;;;;;;;;;;;17.80;89.00;;;;;;5028153;28;19972;-77
2023/06/03 11:32:28;;;;;;;;;;;17.90;89.00;;;;;;5029807;28;20672;-78
2023/06/03 11:35:10;;;;;;;;;;;17.90;88.60;;;;;;5021229;28;19933;-78
2023/06/03 11:37:52;;;;;;;;;;;17.90;88.80;;;;;;5027731;28;19925;-78
2023/06/03 11:40:21;;;;;;;;;;;17.90;88.80;;;;;;5013345;28;19929;-78
2023/06/03 11:43:18;;;;;;;;;;;17.90;88.50;;;;;;5007135;28;19929;-78
2023/06/03 11:45:44;;;;;;;;;;;18.00;88.80;;;;;;4995916;28;19956;-78
2023/06/03 11:48:15;;;;;;;;;;;18.00;89.00;;;;;;5029260;28;19940;-78
2023/06/03 11:50:47;;;;;;;;;;;18.00;88.80;;;;;;5012333;28;19929;-78
2023/06/03 11:53:33;;;;;;;;;;;18.10;88.50;;;;;;5024554;28;20041;-79
2023/06/03 11:56:05;;;;;;;;;;;18.10;88.80;;;;;;5029927;28;19925;-78
2023/06/03 11:58:32;;;;;;;;;;;18.10;88.80;;;;;;5028145;28;19937;-78
2023/06/03 12:01:06;;;;;;;;;;;18.20;88.90;;;;;;5028563;28;19960;-78
2023/06/03 12:03:33;;;;;;;;;;;18.20;88.80;;;;;;5028942;28;19925;-78
2023/06/03 12:06:02;;;;;;;;;;;18.20;88.60;;;;;;5029441;28;19952;-78
2023/06/03 12:08:41;;;;;;;;;;;18.20;88.50;;;;;;5026664;28;19971;-78
2023/06/03 12:11:09;;;;;;;;;;;18.30;89.10;;;;;;5028018;28;19971;-78
2023/06/03 12:13:41;;;;;;;;;;;18.30;89.00;;;;;;5028842;28;20001;-78
2023/06/03 12:16:07;;;;;;;;;;;18.30;88.90;;;;;;5016374;28;19929;-78
2023/06/03 12:18:34;;;;;;;;;;;18.40;89.10;;;;;;5024542;28;20055;-78
2023/06/03 12:21:16;;;;;;;;;;;18.40;89.20;;;;;;5027430;28;19990;-78
2023/06/03 12:23:43;;;;;;;;;;;18.40;89.10;;;;;;5010473;28;20366;-77
2023/06/03 12:26:11;;;;;;;;;;;18.50;89.10;;;;;;5028922;28;19925;-79
2023/06/03 12:28:38;;;;;;;;;;;18.50;89.30;;;;;;5019017;28;19981;-78
2023/06/03 12:31:11;;;;;;;;;;;18.60;89.30;;;;;;5024823;28;20003;-79
2023/06/03 12:33:41;;;;;;;;;;;18.60;89.30;;;;;;5029467;28;19925;-78
2023/06/03 12:36:09;;;;;;;;;;;18.70;89.30;;;;;;5027125;28;19925;-79
2023/06/03 12:38:52;;;;;;;;;;;18.70;89.20;;;;;;5025138;28;19969;-78
2023/06/03 12:41:20;;;;;;;;;;;18.70;89.30;;;;;;5028866;28;19924;-78
2023/06/03 12:43:48;;;;;;;;;;;18.80;89.40;;;;;;5029223;28;20019;-78
2023/06/03 12:46:16;;;;;;;;;;;18.80;89.30;;;;;;5025391;28;20423;-78
2023/06/03 12:48:44;;;;;;;;;;;18.90;89.30;;;;;;5030834;28;20400;-78
2023/06/03 12:51:26;;;;;;;;;;;18.90;89.30;;;;;;5028063;28;20020;-78
2023/06/03 12:53:56;;;;;;;;;;;19.00;89.20;;;;;;5022906;28;19930;-78
2023/06/03 12:56:28;;;;;;;;;;;19.10;89.00;;;;;;5027718;28;19925;-78
2023/06/03 12:58:55;;;;;;;;;;;19.10;88.70;;;;;;5027054;28;19940;-78
2023/06/03 13:01:24;;;;;;;;;;;19.20;88.90;;;;;;5025809;28;19979;-78
2023/06/03 13:03:54;;;;;;;;;;;19.20;88.90;;;;;;5027438;28;19932;-78
2023/06/03 13:06:23;;;;;;;;;;;19.20;89.60;;;;;;5028727;28;19929;-78
2023/06/03 13:08:51;;;;;;;;;;;19.30;89.00;;;;;;5030364;28;19925;-78
2023/06/03 13:11:18;;;;;;;;;;;19.30;88.30;;;;;;5026739;28;19929;-79
2023/06/03 13:13:46;;;;;;;;;;;19.40;88.50;;;;;;5032817;28;19925;-78
2023/06/03 13:16:13;;;;;;;;;;;19.40;88.60;;;;;;5031707;28;19979;-78
2023/06/03 13:18:41;;;;;;;;;;;19.50;88.60;;;;;;5027792;28;19932;-78
2023/06/03 13:21:07;;;;;;;;;;;19.50;88.40;;;;;;5009434;28;20025;-78
2023/06/03 13:23:34;;;;;;;;;;;19.50;88.30;;;;;;5027061;28;19929;-79
2023/06/03 13:26:01;;;;;;;;;;;19.60;88.20;;;;;;5026109;28;19926;-78
2023/06/03 13:28:28;;;;;;;;;;;19.60;88.30;;;;;;5025218;28;19956;-78
2023/06/03 13:30:56;;;;;;;;;;;19.70;88.20;;;;;;5027788;28;20300;-78
2023/06/03 13:33:23;;;;;;;;;;;19.70;88.00;;;;;;5019446;28;19931;-78
2023/06/03 13:35:50;;;;;;;;;;;19.80;88.00;;;;;;5027482;28;19925;-78
2023/06/03 13:38:17;;;;;;;;;;;19.80;88.10;;;;;;5025182;28;19925;-78
2023/06/03 13:40:44;;;;;;;;;;;19.90;88.20;;;;;;5028987;28;19976;-78
2023/06/03 13:43:11;;;;;;;;;;;19.90;88.10;;;;;;5029963;28;19925;-78
2023/06/03 13:45:38;;;;;;;;;;;20.00;88.10;;;;;;5033119;28;19925;-78
2023/06/03 13:48:06;;;;;;;;;;;20.00;87.80;;;;;;5028350;28;20350;-78
2023/06/03 13:50:33;;;;;;;;;;;20.00;87.60;;;;;;5032129;28;19929;-78
2023/06/03 13:53:00;;;;;;;;;;;20.40;81.50;;;;;;5032051;28;19925;-76
2023/06/03 13:55:29;;;;;;;;;;;20.90;78.00;;;;;;5028788;28;19957;-77
2023/06/03 13:57:56;;;;;;;;;;;21.00;77.70;;;;;;5031519;28;19936;-76
2023/06/03 14:00:23;;;;;;;;;;;21.30;77.00;;;;;;5032364;28;19956;-76
2023/06/03 14:02:50;;;;;;;;;;;21.30;75.40;;;;;;5031639;28;19940;-77
2023/06/03 14:05:20;;;;;;;;;;;21.40;78.00;;;;;;5031685;28;20147;-76
2023/06/03 14:07:48;;;;;;;;;;;21.40;76.40;;;;;;5032005;28;19925;-76
2023/06/03 14:10:14;;;;;;;;;;;21.60;76.60;;;;;;5005644;28;20388;-76
2023/06/03 14:12:41;;;;;;;;;;;21.70;76.00;;;;;;5031959;28;19956;-76
2023/06/03 14:15:08;;;;;;;;;;;21.80;75.00;;;;;;5028643;28;20015;-76
2023/06/03 14:17:36;;;;;;;;;;;21.70;74.80;;;;;;5032329;28;19933;-79
2023/06/03 14:20:03;;;;;;;;;;;21.70;76.50;;;;;;5032335;28;19927;-79
2023/06/03 14:22:32;;;;;;;;;;;21.60;77.40;;;;;;5030151;28;19979;-78
2023/06/03 14:24:58;;;;;;;;;;;21.60;78.20;;;;;;5029659;28;19960;-79
2023/06/03 14:27:25;;;;;;;;;;;21.50;79.20;;;;;;5027334;28;19996;-79
2023/06/03 14:29:52;;;;;;;;;;;21.50;79.60;;;;;;5032924;28;19925;-79